createdAt,value
2019-05-19T00:00:26.284Z,11.31
2019-05-19T00:00:59.394Z,11.31
2019-05-19T00:01:32.402Z,11.31
2019-05-19T00:02:05.449Z,11.25
2019-05-19T00:02:40.851Z,11.25
2019-05-19T00:03:14.577Z,11.25
2019-05-19T00:03:47.668Z,11.25
2019-05-19T00:04:22.276Z,11.25
2019-05-19T00:04:56.726Z,11.25
2019-05-19T00:05:30.937Z,11.25
2019-05-19T00:06:04.492Z,11.25
2019-05-19T00:06:37.727Z,11.25
2019-05-19T00:07:10.681Z,11.25
2019-05-19T00:07:45.934Z,11.25
2019-05-19T00:08:18.849Z,11.19
2019-05-19T00:08:52.063Z,11.19
2019-05-19T00:09:25.030Z,11.19
2019-05-19T00:09:58.101Z,11.25
2019-05-19T00:10:31.118Z,11.19
2019-05-19T00:11:04.238Z,11.19
2019-05-19T00:11:37.293Z,11.19
2019-05-19T00:12:10.545Z,11.19
2019-05-19T00:12:43.774Z,11.19
2019-05-19T00:13:16.825Z,11.12
2019-05-19T00:13:49.830Z,11.12
2019-05-19T00:14:22.934Z,11.12
2019-05-19T00:14:55.947Z,11.12
2019-05-19T00:15:28.941Z,11.12
2019-05-19T00:16:01.969Z,11.12
2019-05-19T00:16:34.898Z,11.12
2019-05-19T00:17:08.015Z,11.12
2019-05-19T00:17:40.988Z,11.12
2019-05-19T00:18:13.992Z,11.12
2019-05-19T00:18:46.979Z,11.12
2019-05-19T00:19:26.686Z,11.12
2019-05-19T00:19:54.863Z,11.12
2019-05-19T00:20:27.776Z,11.06
2019-05-19T00:21:02.018Z,11.06
2019-05-19T00:21:36.040Z,11.06
2019-05-19T00:22:09.966Z,11.06
2019-05-19T00:22:42.959Z,11.06
2019-05-19T00:23:16.073Z,11.06
2019-05-19T00:23:48.985Z,11.06
2019-05-19T00:24:22.901Z,11.06
2019-05-19T00:24:55.799Z,11.06
2019-05-19T00:25:28.706Z,11.06
2019-05-19T00:26:02.031Z,11.06
2019-05-19T00:26:34.962Z,11.00
2019-05-19T00:27:07.967Z,11.00
2019-05-19T00:27:41.466Z,11.00
2019-05-19T00:28:14.615Z,11.00
2019-05-19T00:28:49.374Z,11.00
2019-05-19T00:29:22.432Z,11.00
2019-05-19T00:29:56.976Z,11.00
2019-05-19T00:30:29.971Z,11.00
2019-05-19T00:31:04.651Z,11.00
2019-05-19T00:31:37.535Z,11.00
2019-05-19T00:32:10.648Z,11.00
2019-05-19T00:32:43.453Z,11.00
2019-05-19T00:33:16.411Z,11.00
2019-05-19T00:33:49.334Z,11.00
2019-05-19T00:34:22.263Z,10.94
2019-05-19T00:34:55.363Z,10.94
2019-05-19T00:35:29.885Z,10.94
2019-05-19T00:36:02.894Z,10.94
2019-05-19T00:36:35.767Z,10.94
2019-05-19T00:37:08.671Z,10.94
2019-05-19T00:37:41.711Z,10.94
2019-05-19T00:38:14.919Z,10.94
2019-05-19T00:38:47.855Z,10.94
2019-05-19T00:39:20.981Z,10.94
2019-05-19T00:39:54.501Z,10.88
2019-05-19T00:40:27.443Z,10.88
2019-05-19T00:41:00.458Z,10.88
2019-05-19T00:41:33.502Z,10.88
2019-05-19T00:42:06.421Z,10.88
2019-05-19T00:42:39.417Z,10.88
2019-05-19T00:43:12.353Z,10.88
2019-05-19T00:43:45.606Z,10.88
2019-05-19T00:44:18.752Z,10.88
2019-05-19T00:44:51.657Z,10.88
2019-05-19T00:45:24.867Z,10.88
2019-05-19T00:45:57.905Z,10.81
2019-05-19T00:46:31.059Z,10.81
2019-05-19T00:47:04.070Z,10.81
2019-05-19T00:47:37.155Z,10.81
2019-05-19T00:48:10.279Z,10.81
2019-05-19T00:48:43.311Z,10.81
2019-05-19T00:49:16.241Z,10.81
2019-05-19T00:49:49.384Z,10.81
2019-05-19T00:50:22.563Z,10.81
2019-05-19T00:50:55.611Z,10.81
2019-05-19T00:51:28.778Z,10.81
2019-05-19T00:52:01.975Z,10.81
2019-05-19T00:52:35.025Z,10.81
2019-05-19T00:53:08.167Z,10.81
2019-05-19T00:53:41.173Z,10.81
2019-05-19T00:54:14.716Z,10.81
2019-05-19T00:54:47.752Z,10.81
2019-05-19T00:55:20.873Z,10.81
2019-05-19T00:55:54.493Z,10.81
2019-05-19T00:56:28.607Z,10.81
2019-05-19T00:57:02.320Z,10.81
2019-05-19T00:57:36.632Z,10.75
2019-05-19T00:58:09.669Z,10.75
2019-05-19T00:58:43.171Z,10.75
2019-05-19T00:59:16.445Z,10.75
2019-05-19T00:59:49.655Z,10.75
2019-05-19T01:00:22.577Z,10.75
2019-05-19T01:00:55.470Z,10.75
2019-05-19T01:01:28.446Z,10.75
2019-05-19T01:02:01.823Z,10.75
2019-05-19T01:02:34.922Z,10.75
2019-05-19T01:03:07.951Z,10.75
2019-05-19T01:03:40.937Z,10.75
2019-05-19T01:04:13.853Z,10.75
2019-05-19T01:04:46.709Z,10.75
2019-05-19T01:05:20.772Z,10.75
2019-05-19T01:05:54.049Z,10.75
2019-05-19T01:06:27.855Z,10.75
2019-05-19T01:07:00.943Z,10.75
2019-05-19T01:07:34.058Z,10.75
2019-05-19T01:08:07.100Z,10.75
2019-05-19T01:08:40.102Z,10.75
2019-05-19T01:09:13.130Z,10.75
2019-05-19T01:09:46.119Z,10.75
2019-05-19T01:10:21.072Z,10.75
2019-05-19T01:10:53.984Z,10.75
2019-05-19T01:11:27.024Z,10.75
2019-05-19T01:12:00.015Z,10.75
2019-05-19T01:12:33.026Z,10.75
2019-05-19T01:13:06.030Z,10.75
2019-05-19T01:13:38.985Z,10.75
2019-05-19T01:14:15.176Z,10.75
2019-05-19T01:14:46.936Z,10.75
2019-05-19T01:15:20.904Z,10.75
2019-05-19T01:15:53.861Z,10.75
2019-05-19T01:16:26.898Z,10.75
2019-05-19T01:17:00.043Z,10.75
2019-05-19T01:17:33.021Z,10.75
2019-05-19T01:18:06.063Z,10.75
2019-05-19T01:18:39.214Z,10.75
2019-05-19T01:19:12.281Z,10.75
2019-05-19T01:19:55.649Z,10.75
2019-05-19T01:20:20.495Z,10.75
2019-05-19T01:20:54.307Z,10.75
2019-05-19T01:21:27.455Z,10.75
2019-05-19T01:22:01.156Z,10.75
2019-05-19T01:22:34.219Z,10.75
2019-05-19T01:23:08.787Z,10.75
2019-05-19T01:23:41.947Z,10.75
2019-05-19T01:24:14.989Z,10.75
2019-05-19T01:24:47.929Z,10.75
2019-05-19T01:25:21.040Z,10.75
2019-05-19T01:25:54.094Z,10.75
2019-05-19T01:26:27.017Z,10.75
2019-05-19T01:27:00.127Z,10.75
2019-05-19T01:27:33.153Z,10.75
2019-05-19T01:28:06.302Z,10.75
2019-05-19T01:28:40.401Z,10.75
2019-05-19T01:29:13.604Z,10.75
2019-05-19T01:29:46.525Z,10.75
2019-05-19T01:30:19.757Z,10.75
2019-05-19T01:30:52.854Z,10.75
2019-05-19T01:31:25.955Z,10.75
2019-05-19T01:31:58.948Z,10.75
2019-05-19T01:32:31.949Z,10.75
2019-05-19T01:33:05.014Z,10.75
2019-05-19T01:33:38.893Z,10.75
2019-05-19T01:34:11.945Z,10.75
2019-05-19T01:34:44.989Z,10.75
2019-05-19T01:35:18.260Z,10.75
2019-05-19T01:35:51.316Z,10.75
2019-05-19T01:36:24.277Z,10.75
2019-05-19T01:36:57.213Z,10.75
2019-05-19T01:37:30.285Z,10.75
2019-05-19T01:38:03.481Z,10.75
2019-05-19T01:38:36.485Z,10.75
2019-05-19T01:39:09.631Z,10.75
2019-05-19T01:39:42.624Z,10.75
2019-05-19T01:40:15.734Z,10.75
2019-05-19T01:40:48.651Z,10.75
2019-05-19T01:41:21.736Z,10.75
2019-05-19T01:41:54.731Z,10.75
2019-05-19T01:42:27.881Z,10.75
2019-05-19T01:43:00.821Z,10.75
2019-05-19T01:43:33.999Z,10.75
2019-05-19T01:44:07.028Z,10.75
2019-05-19T01:44:40.053Z,10.75
2019-05-19T01:45:14.475Z,10.75
2019-05-19T01:45:47.441Z,10.75
2019-05-19T01:46:20.465Z,10.75
2019-05-19T01:46:53.455Z,10.75
2019-05-19T01:47:26.383Z,10.69
2019-05-19T01:47:59.457Z,10.69
2019-05-19T01:48:32.445Z,10.69
2019-05-19T01:49:05.491Z,10.69
2019-05-19T01:49:38.648Z,10.69
2019-05-19T01:50:19.159Z,10.69
2019-05-19T01:50:46.934Z,10.69
2019-05-19T01:51:19.951Z,10.69
2019-05-19T01:51:53.411Z,10.69
2019-05-19T01:52:26.363Z,10.69
2019-05-19T01:53:00.899Z,10.69
2019-05-19T01:53:33.968Z,10.69
2019-05-19T01:54:07.061Z,10.69
2019-05-19T01:54:40.249Z,10.69
2019-05-19T01:55:13.346Z,10.69
2019-05-19T01:55:46.313Z,10.69
2019-05-19T01:56:19.319Z,10.69
2019-05-19T01:56:52.480Z,10.69
2019-05-19T01:57:25.391Z,10.69
2019-05-19T01:57:58.413Z,10.69
2019-05-19T01:58:31.343Z,10.69
2019-05-19T01:59:04.508Z,10.69
2019-05-19T01:59:37.375Z,10.69
2019-05-19T02:00:10.931Z,10.69
2019-05-19T02:00:43.962Z,10.69
2019-05-19T02:01:16.921Z,10.69
2019-05-19T02:01:49.706Z,10.69
2019-05-19T02:02:22.649Z,10.69
2019-05-19T02:02:55.541Z,10.69
2019-05-19T02:03:28.653Z,10.69
2019-05-19T02:04:01.589Z,10.69
2019-05-19T02:04:34.664Z,10.69
2019-05-19T02:05:07.888Z,10.69
2019-05-19T02:05:40.847Z,10.69
2019-05-19T02:06:13.887Z,10.69
2019-05-19T02:06:46.913Z,10.69
2019-05-19T02:07:19.933Z,10.69
2019-05-19T02:07:53.019Z,10.69
2019-05-19T02:08:26.416Z,10.69
2019-05-19T02:08:59.465Z,10.69
2019-05-19T02:09:32.461Z,10.69
2019-05-19T02:10:06.103Z,10.69
2019-05-19T02:10:38.979Z,10.69
2019-05-19T02:11:12.032Z,10.69
2019-05-19T02:11:45.171Z,10.69
2019-05-19T02:12:18.240Z,10.69
2019-05-19T02:12:51.159Z,10.69
2019-05-19T02:13:24.122Z,10.69
2019-05-19T02:13:57.119Z,10.69
2019-05-19T02:14:30.207Z,10.69
2019-05-19T02:15:03.668Z,10.69
2019-05-19T02:15:36.949Z,10.69
2019-05-19T02:16:09.992Z,10.69
2019-05-19T02:16:43.060Z,10.69
2019-05-19T02:17:16.057Z,10.69
2019-05-19T02:17:49.010Z,10.69
2019-05-19T02:18:21.893Z,10.69
2019-05-19T02:18:55.007Z,10.69
2019-05-19T02:19:27.911Z,10.69
2019-05-19T02:20:03.546Z,10.63
2019-05-19T02:20:36.535Z,10.69
2019-05-19T02:21:09.569Z,10.69
2019-05-19T02:21:42.523Z,10.69
2019-05-19T02:22:15.487Z,10.69
2019-05-19T02:22:48.497Z,10.69
2019-05-19T02:23:21.466Z,10.69
2019-05-19T02:23:54.356Z,10.69
2019-05-19T02:24:27.521Z,10.69
2019-05-19T02:25:00.453Z,10.69
2019-05-19T02:25:33.547Z,10.69
2019-05-19T02:26:06.607Z,10.69
2019-05-19T02:26:39.761Z,10.69
2019-05-19T02:27:12.722Z,10.69
2019-05-19T02:27:46.891Z,10.69
2019-05-19T02:28:20.054Z,10.69
2019-05-19T02:28:53.226Z,10.69
2019-05-19T02:29:26.463Z,10.69
2019-05-19T02:29:59.527Z,10.69
2019-05-19T02:30:32.657Z,10.69
2019-05-19T02:31:05.706Z,10.69
2019-05-19T02:31:38.637Z,10.69
2019-05-19T02:32:11.488Z,10.63
2019-05-19T02:32:44.404Z,10.69
2019-05-19T02:33:17.353Z,10.63
2019-05-19T02:33:50.373Z,10.63
2019-05-19T02:34:23.288Z,10.63
2019-05-19T02:34:56.217Z,10.69
2019-05-19T02:35:29.148Z,10.63
2019-05-19T02:36:02.191Z,10.63
2019-05-19T02:36:35.365Z,10.63
2019-05-19T02:37:08.372Z,10.63
2019-05-19T02:37:41.458Z,10.69
2019-05-19T02:38:14.499Z,10.63
2019-05-19T02:38:47.469Z,10.63
2019-05-19T02:39:20.591Z,10.63
2019-05-19T02:39:53.621Z,10.63
2019-05-19T02:40:27.962Z,10.63
2019-05-19T02:41:03.537Z,10.63
2019-05-19T02:41:38.131Z,10.63
2019-05-19T02:42:12.236Z,10.63
2019-05-19T02:42:47.625Z,10.63
2019-05-19T02:43:22.090Z,10.63
2019-05-19T02:43:56.398Z,10.63
2019-05-19T02:44:30.475Z,10.56
2019-05-19T02:45:04.024Z,10.56
2019-05-19T02:45:38.988Z,10.56
2019-05-19T02:46:12.671Z,10.56
2019-05-19T02:46:46.142Z,10.56
2019-05-19T02:47:21.464Z,10.56
2019-05-19T02:47:56.226Z,10.56
2019-05-19T02:48:30.394Z,10.56
2019-05-19T02:49:05.424Z,10.56
2019-05-19T02:49:39.643Z,10.56
2019-05-19T02:50:13.919Z,10.56
2019-05-19T02:50:52.630Z,10.56
2019-05-19T02:51:25.441Z,10.56
2019-05-19T02:52:00.572Z,10.50
2019-05-19T02:52:34.225Z,10.50
2019-05-19T02:53:08.383Z,10.50
2019-05-19T02:53:43.214Z,10.50
2019-05-19T02:54:19.610Z,10.50
2019-05-19T02:54:53.216Z,10.50
2019-05-19T02:55:26.681Z,10.50
2019-05-19T02:56:01.984Z,10.50
2019-05-19T02:56:35.550Z,10.50
2019-05-19T02:57:08.813Z,10.50
2019-05-19T02:57:42.176Z,10.50
2019-05-19T02:58:15.327Z,10.50
2019-05-19T02:58:48.946Z,10.50
2019-05-19T02:59:22.927Z,10.50
2019-05-19T02:59:56.120Z,10.44
2019-05-19T03:00:37.501Z,10.50
2019-05-19T03:01:10.565Z,10.50
2019-05-19T03:02:13.173Z,10.50
2019-05-19T03:02:46.133Z,10.50
2019-05-19T03:03:19.341Z,10.50
2019-05-19T03:03:52.304Z,10.50
2019-05-19T03:04:25.212Z,10.50
2019-05-19T03:04:58.159Z,10.50
2019-05-19T03:05:31.830Z,10.50
2019-05-19T03:06:04.887Z,10.50
2019-05-19T03:06:38.493Z,10.50
2019-05-19T03:07:11.658Z,10.50
2019-05-19T03:07:44.471Z,10.50
2019-05-19T03:08:17.507Z,10.44
2019-05-19T03:08:50.465Z,10.50
2019-05-19T03:09:23.320Z,10.44
2019-05-19T03:09:56.370Z,10.44
2019-05-19T03:10:29.336Z,10.44
2019-05-19T03:11:02.296Z,10.44
2019-05-19T03:11:35.353Z,10.44
2019-05-19T03:12:08.739Z,10.44
2019-05-19T03:12:42.683Z,10.44
2019-05-19T03:13:16.065Z,10.44
2019-05-19T03:13:49.081Z,10.44
2019-05-19T03:14:22.773Z,10.44
2019-05-19T03:14:55.691Z,10.44
2019-05-19T03:15:28.925Z,10.44
2019-05-19T03:16:02.013Z,10.44
2019-05-19T03:16:34.988Z,10.44
2019-05-19T03:17:07.997Z,10.44
2019-05-19T03:17:41.847Z,10.44
2019-05-19T03:18:14.747Z,10.44
2019-05-19T03:18:47.738Z,10.44
2019-05-19T03:19:20.684Z,10.44
2019-05-19T03:19:54.005Z,10.44
2019-05-19T03:20:27.142Z,10.44
2019-05-19T03:21:10.278Z,10.44
2019-05-19T03:21:35.107Z,10.44
2019-05-19T03:22:08.433Z,10.44
2019-05-19T03:22:41.407Z,10.44
2019-05-19T03:23:14.529Z,10.44
2019-05-19T03:23:48.370Z,10.44
2019-05-19T03:24:21.377Z,10.44
2019-05-19T03:24:54.403Z,10.44
2019-05-19T03:25:27.243Z,10.50
2019-05-19T03:26:00.163Z,10.50
2019-05-19T03:26:33.206Z,10.50
2019-05-19T03:27:06.090Z,10.50
2019-05-19T03:27:39.055Z,10.50
2019-05-19T03:28:11.994Z,10.50
2019-05-19T03:28:44.920Z,10.50
2019-05-19T03:29:22.219Z,10.50
2019-05-19T03:29:57.627Z,10.50
2019-05-19T03:30:43.024Z,10.50
2019-05-19T03:31:24.016Z,10.50
2019-05-19T03:32:12.708Z,10.50
2019-05-19T03:32:50.326Z,10.56
2019-05-19T03:33:27.098Z,10.56
2019-05-19T03:34:00.154Z,10.56
2019-05-19T03:34:32.947Z,10.56
2019-05-19T03:35:06.000Z,10.56
2019-05-19T03:35:39.124Z,10.56
2019-05-19T03:36:12.197Z,10.56
2019-05-19T03:36:45.157Z,10.56
2019-05-19T03:37:18.099Z,10.56
2019-05-19T03:37:51.010Z,10.56
2019-05-19T03:38:24.134Z,10.56
2019-05-19T03:38:57.335Z,10.56
2019-05-19T03:39:30.407Z,10.56
2019-05-19T03:40:05.657Z,10.56
2019-05-19T03:40:38.747Z,10.56
2019-05-19T03:41:12.626Z,10.56
2019-05-19T03:41:45.502Z,10.56
2019-05-19T03:42:18.829Z,10.63
2019-05-19T03:42:51.979Z,10.56
2019-05-19T03:43:26.583Z,10.63
2019-05-19T03:43:59.664Z,10.63
2019-05-19T03:44:32.593Z,10.63
2019-05-19T03:45:05.762Z,10.63
2019-05-19T03:45:38.890Z,10.63
2019-05-19T03:46:11.981Z,10.63
2019-05-19T03:46:46.157Z,10.63
2019-05-19T03:47:19.203Z,10.63
2019-05-19T03:47:52.180Z,10.63
2019-05-19T03:48:25.169Z,10.63
2019-05-19T03:48:58.252Z,10.63
2019-05-19T03:49:31.241Z,10.63
2019-05-19T03:50:04.750Z,10.63
2019-05-19T03:50:37.670Z,10.63
2019-05-19T03:51:28.703Z,10.69
2019-05-19T03:51:45.683Z,10.69
2019-05-19T03:52:18.574Z,10.69
2019-05-19T03:52:51.650Z,10.69
2019-05-19T03:53:25.750Z,10.69
2019-05-19T03:53:58.792Z,10.69
2019-05-19T03:54:31.768Z,10.69
2019-05-19T03:55:05.177Z,10.69
2019-05-19T03:55:38.170Z,10.69
2019-05-19T03:56:11.326Z,10.69
2019-05-19T03:56:45.219Z,10.69
2019-05-19T03:57:18.224Z,10.69
2019-05-19T03:57:51.010Z,10.69
2019-05-19T03:58:24.005Z,10.69
2019-05-19T03:58:56.981Z,10.75
2019-05-19T03:59:29.924Z,10.75
2019-05-19T04:00:04.481Z,10.75
2019-05-19T04:00:38.565Z,10.75
2019-05-19T04:01:11.572Z,10.75
2019-05-19T04:01:44.569Z,10.75
2019-05-19T04:02:17.471Z,10.75
2019-05-19T04:02:50.536Z,10.75
2019-05-19T04:03:24.672Z,10.75
2019-05-19T04:03:58.670Z,10.75
2019-05-19T04:04:31.567Z,10.75
2019-05-19T04:05:05.589Z,10.81
2019-05-19T04:05:38.597Z,10.81
2019-05-19T04:06:11.785Z,10.81
2019-05-19T04:06:44.781Z,10.81
2019-05-19T04:07:17.933Z,10.81
2019-05-19T04:07:50.856Z,10.81
2019-05-19T04:08:24.041Z,10.81
2019-05-19T04:08:56.854Z,10.81
2019-05-19T04:09:29.706Z,10.81
2019-05-19T04:10:03.399Z,10.88
2019-05-19T04:10:36.435Z,10.88
2019-05-19T04:11:09.325Z,10.88
2019-05-19T04:11:42.355Z,10.88
2019-05-19T04:12:15.284Z,10.88
2019-05-19T04:12:49.932Z,10.88
2019-05-19T04:13:22.930Z,10.88
2019-05-19T04:13:56.935Z,10.94
2019-05-19T04:14:29.756Z,10.94
2019-05-19T04:15:03.157Z,10.94
2019-05-19T04:15:36.190Z,10.94
2019-05-19T04:16:09.037Z,10.94
2019-05-19T04:16:42.057Z,10.94
2019-05-19T04:17:16.010Z,10.94
2019-05-19T04:17:49.023Z,10.94
2019-05-19T04:18:22.121Z,10.94
2019-05-19T04:18:54.997Z,11.00
2019-05-19T04:19:27.942Z,11.00
2019-05-19T04:20:01.942Z,11.00
2019-05-19T04:20:34.832Z,11.00
2019-05-19T04:21:07.819Z,11.00
2019-05-19T04:21:48.644Z,11.00
2019-05-19T04:22:16.804Z,11.00
2019-05-19T04:22:49.977Z,11.00
2019-05-19T04:23:22.889Z,11.00
2019-05-19T04:23:55.995Z,11.06
2019-05-19T04:24:28.811Z,11.06
2019-05-19T04:25:02.016Z,11.06
2019-05-19T04:25:35.088Z,11.06
2019-05-19T04:26:08.201Z,11.06
2019-05-19T04:26:41.245Z,11.06
2019-05-19T04:27:15.831Z,11.06
2019-05-19T04:27:48.810Z,11.06
2019-05-19T04:28:21.806Z,11.06
2019-05-19T04:28:54.911Z,11.06
2019-05-19T04:29:27.942Z,11.12
2019-05-19T04:30:01.067Z,11.12
2019-05-19T04:30:34.081Z,11.12
2019-05-19T04:31:06.995Z,11.12
2019-05-19T04:31:41.132Z,11.12
2019-05-19T04:32:14.237Z,11.12
2019-05-19T04:32:47.192Z,11.12
2019-05-19T04:33:20.130Z,11.12
2019-05-19T04:33:53.171Z,11.12
2019-05-19T04:34:26.114Z,11.12
2019-05-19T04:35:00.174Z,11.19
2019-05-19T04:35:33.206Z,11.19
2019-05-19T04:36:06.267Z,11.19
2019-05-19T04:36:39.270Z,11.19
2019-05-19T04:37:12.322Z,11.19
2019-05-19T04:37:45.258Z,11.19
2019-05-19T04:38:18.255Z,11.19
2019-05-19T04:38:51.198Z,11.25
2019-05-19T04:39:24.211Z,11.25
2019-05-19T04:39:57.290Z,11.25
2019-05-19T04:40:30.117Z,11.25
2019-05-19T04:41:03.203Z,11.25
2019-05-19T04:41:40.018Z,11.25
2019-05-19T04:42:11.226Z,11.25
2019-05-19T04:42:44.133Z,11.31
2019-05-19T04:43:17.238Z,11.31
2019-05-19T04:43:50.205Z,11.31
2019-05-19T04:44:23.901Z,11.31
2019-05-19T04:44:57.046Z,11.31
2019-05-19T04:45:30.131Z,11.38
2019-05-19T04:46:03.305Z,11.38
2019-05-19T04:46:36.671Z,11.38
2019-05-19T04:47:09.729Z,11.38
2019-05-19T04:47:42.885Z,11.38
2019-05-19T04:48:16.059Z,11.38
2019-05-19T04:48:49.194Z,11.38
2019-05-19T04:49:23.323Z,11.38
2019-05-19T04:49:56.489Z,11.44
2019-05-19T04:50:29.669Z,11.38
2019-05-19T04:51:03.799Z,11.44
2019-05-19T04:51:36.954Z,11.38
2019-05-19T04:52:09.988Z,11.44
2019-05-19T04:52:43.187Z,11.44
2019-05-19T04:53:16.357Z,11.44
2019-05-19T04:53:49.287Z,11.44
2019-05-19T04:54:23.339Z,11.44
2019-05-19T04:54:56.248Z,11.44
2019-05-19T04:55:29.260Z,11.44
2019-05-19T04:56:02.272Z,11.44
2019-05-19T04:56:35.187Z,11.44
2019-05-19T04:57:08.011Z,11.44
2019-05-19T04:57:40.929Z,11.50
2019-05-19T04:58:13.744Z,11.50
2019-05-19T04:58:46.800Z,11.50
2019-05-19T04:59:21.028Z,11.50
2019-05-19T04:59:53.969Z,11.50
2019-05-19T05:00:26.983Z,11.50
2019-05-19T05:00:59.995Z,11.50
2019-05-19T05:01:33.193Z,11.50
2019-05-19T05:02:06.314Z,11.50
2019-05-19T05:02:39.474Z,11.56
2019-05-19T05:03:12.405Z,11.56
2019-05-19T05:03:45.394Z,11.56
2019-05-19T05:04:18.204Z,11.56
2019-05-19T05:04:51.234Z,11.56
2019-05-19T05:05:24.288Z,11.56
2019-05-19T05:05:57.094Z,11.56
2019-05-19T05:06:30.066Z,11.56
2019-05-19T05:07:03.253Z,11.63
2019-05-19T05:07:36.409Z,11.63
2019-05-19T05:08:27.193Z,11.63
2019-05-19T05:08:44.816Z,11.63
2019-05-19T05:09:18.254Z,11.63
2019-05-19T05:09:54.608Z,11.69
2019-05-19T05:10:27.535Z,11.69
2019-05-19T05:11:00.448Z,11.69
2019-05-19T05:11:33.567Z,11.69
2019-05-19T05:12:06.572Z,11.69
2019-05-19T05:12:39.672Z,11.75
2019-05-19T05:13:12.753Z,11.75
2019-05-19T05:13:46.797Z,11.75
2019-05-19T05:14:19.817Z,11.75
2019-05-19T05:14:53.006Z,11.81
2019-05-19T05:15:26.145Z,11.81
2019-05-19T05:15:59.147Z,11.81
2019-05-19T05:16:32.165Z,11.81
2019-05-19T05:17:05.193Z,11.88
2019-05-19T05:17:38.266Z,11.88
2019-05-19T05:18:11.466Z,11.88
2019-05-19T05:18:47.704Z,11.88
2019-05-19T05:19:19.237Z,11.88
2019-05-19T05:19:52.049Z,11.88
2019-05-19T05:20:26.823Z,11.94
2019-05-19T05:21:00.966Z,11.94
2019-05-19T05:21:33.881Z,11.94
2019-05-19T05:22:20.998Z,11.94
2019-05-19T05:22:41.888Z,11.94
2019-05-19T05:23:15.203Z,11.94
2019-05-19T05:23:48.125Z,12.00
2019-05-19T05:24:21.155Z,12.00
2019-05-19T05:24:54.200Z,12.00
2019-05-19T05:25:27.213Z,12.00
2019-05-19T05:26:00.263Z,12.00
2019-05-19T05:26:33.172Z,12.00
2019-05-19T05:27:06.221Z,12.06
2019-05-19T05:27:39.189Z,12.06
2019-05-19T05:28:12.103Z,12.06
2019-05-19T05:28:45.027Z,12.06
2019-05-19T05:29:18.081Z,12.06
2019-05-19T05:29:51.107Z,12.06
2019-05-19T05:30:23.937Z,12.13
2019-05-19T05:30:56.870Z,12.13
2019-05-19T05:31:29.801Z,12.13
2019-05-19T05:32:02.874Z,12.13
2019-05-19T05:32:35.872Z,12.13
2019-05-19T05:33:08.830Z,12.13
2019-05-19T05:33:41.829Z,12.19
2019-05-19T05:34:14.742Z,12.19
2019-05-19T05:34:47.599Z,12.19
2019-05-19T05:35:20.654Z,12.19
2019-05-19T05:35:53.569Z,12.19
2019-05-19T05:36:27.818Z,12.25
2019-05-19T05:37:01.031Z,12.25
2019-05-19T05:37:34.961Z,12.25
2019-05-19T05:38:07.846Z,12.25
2019-05-19T05:38:40.887Z,12.25
2019-05-19T05:39:14.665Z,12.25
2019-05-19T05:39:47.581Z,12.31
2019-05-19T05:40:20.639Z,12.31
2019-05-19T05:40:53.555Z,12.31
2019-05-19T05:41:26.709Z,12.31
2019-05-19T05:41:59.632Z,12.31
2019-05-19T05:42:32.669Z,12.31
2019-05-19T05:43:05.625Z,12.37
2019-05-19T05:43:38.644Z,12.37
2019-05-19T05:44:11.695Z,12.37
2019-05-19T05:44:44.607Z,12.37
2019-05-19T05:45:17.741Z,12.37
2019-05-19T05:45:50.751Z,12.37
2019-05-19T05:46:23.833Z,12.37
2019-05-19T05:46:57.005Z,12.44
2019-05-19T05:47:30.905Z,12.44
2019-05-19T05:48:03.882Z,12.44
2019-05-19T05:48:36.808Z,12.44
2019-05-19T05:49:09.717Z,12.44
2019-05-19T05:49:42.791Z,12.44
2019-05-19T05:50:15.966Z,12.44
2019-05-19T05:50:49.039Z,12.44
2019-05-19T05:51:22.000Z,12.44
2019-05-19T05:51:56.349Z,12.44
2019-05-19T05:52:38.027Z,12.50
2019-05-19T05:53:04.355Z,12.50
2019-05-19T05:53:37.405Z,12.50
2019-05-19T05:54:10.527Z,12.50
2019-05-19T05:54:43.583Z,12.56
2019-05-19T05:55:16.652Z,12.56
2019-05-19T05:55:50.859Z,12.56
2019-05-19T05:56:23.804Z,12.56
2019-05-19T05:56:56.779Z,12.56
2019-05-19T05:57:30.425Z,12.63
2019-05-19T05:58:03.551Z,12.63
2019-05-19T05:58:36.533Z,12.63
2019-05-19T05:59:09.472Z,12.63
2019-05-19T05:59:42.308Z,12.69
2019-05-19T06:00:15.918Z,12.69
2019-05-19T06:00:49.251Z,12.69
2019-05-19T06:01:22.163Z,12.69
2019-05-19T06:01:55.105Z,12.69
2019-05-19T06:02:28.209Z,12.69
2019-05-19T06:03:01.157Z,12.69
2019-05-19T06:03:34.131Z,12.69
2019-05-19T06:04:07.405Z,12.69
2019-05-19T06:04:40.210Z,12.69
2019-05-19T06:05:13.145Z,12.69
2019-05-19T06:05:46.300Z,12.75
2019-05-19T06:06:19.225Z,12.75
2019-05-19T06:06:52.141Z,12.75
2019-05-19T06:07:26.457Z,12.75
2019-05-19T06:07:59.473Z,12.75
2019-05-19T06:08:32.403Z,12.75
2019-05-19T06:09:06.458Z,12.75
2019-05-19T06:09:40.534Z,12.81
2019-05-19T06:10:13.791Z,12.81
2019-05-19T06:10:46.995Z,12.81
2019-05-19T06:11:20.117Z,12.81
2019-05-19T06:11:53.149Z,12.81
2019-05-19T06:12:26.328Z,12.81
2019-05-19T06:12:59.300Z,12.81
2019-05-19T06:13:32.367Z,12.81
2019-05-19T06:14:05.559Z,12.81
2019-05-19T06:14:38.471Z,12.81
2019-05-19T06:15:11.883Z,12.81
2019-05-19T06:15:45.228Z,12.81
2019-05-19T06:16:18.435Z,12.88
2019-05-19T06:16:51.435Z,12.88
2019-05-19T06:17:24.583Z,12.88
2019-05-19T06:17:57.543Z,12.88
2019-05-19T06:18:30.582Z,12.88
2019-05-19T06:19:03.718Z,12.88
2019-05-19T06:19:36.770Z,12.88
2019-05-19T06:20:09.701Z,12.88
2019-05-19T06:20:42.739Z,12.94
2019-05-19T06:21:15.692Z,12.94
2019-05-19T06:21:48.713Z,12.94
2019-05-19T06:22:21.814Z,12.94
2019-05-19T06:22:56.915Z,12.94
2019-05-19T06:23:29.915Z,12.94
2019-05-19T06:24:02.956Z,12.94
2019-05-19T06:24:36.006Z,13.00
2019-05-19T06:25:10.807Z,13.00
2019-05-19T06:25:44.002Z,13.00
2019-05-19T06:26:17.045Z,13.00
2019-05-19T06:26:50.226Z,13.00
2019-05-19T06:27:23.249Z,13.00
2019-05-19T06:27:56.328Z,13.06
2019-05-19T06:28:29.546Z,13.00
2019-05-19T06:29:02.569Z,13.00
2019-05-19T06:29:35.845Z,13.06
2019-05-19T06:30:09.356Z,13.06
2019-05-19T06:30:43.265Z,13.06
2019-05-19T06:31:16.181Z,13.06
2019-05-19T06:31:49.397Z,13.06
2019-05-19T06:32:29.793Z,13.06
2019-05-19T06:33:02.944Z,13.13
2019-05-19T06:33:35.862Z,13.06
2019-05-19T06:34:09.028Z,13.13
2019-05-19T06:34:42.135Z,13.13
2019-05-19T06:35:15.832Z,13.13
2019-05-19T06:35:49.323Z,13.13
2019-05-19T06:36:23.427Z,13.13
2019-05-19T06:36:56.365Z,13.13
2019-05-19T06:37:29.347Z,13.13
2019-05-19T06:38:02.861Z,13.13
2019-05-19T06:38:36.174Z,13.13
2019-05-19T06:39:10.282Z,13.13
2019-05-19T06:39:43.185Z,13.13
2019-05-19T06:40:16.899Z,13.19
2019-05-19T06:40:50.025Z,13.19
2019-05-19T06:41:23.026Z,13.19
2019-05-19T06:41:55.936Z,13.19
2019-05-19T06:42:28.841Z,13.19
2019-05-19T06:43:03.591Z,13.19
2019-05-19T06:43:36.666Z,13.25
2019-05-19T06:44:09.701Z,13.25
2019-05-19T06:44:42.730Z,13.25
2019-05-19T06:45:16.575Z,13.25
2019-05-19T06:45:49.495Z,13.25
2019-05-19T06:46:22.571Z,13.25
2019-05-19T06:46:55.476Z,13.25
2019-05-19T06:47:28.521Z,13.25
2019-05-19T06:48:01.474Z,13.25
2019-05-19T06:48:34.417Z,13.25
2019-05-19T06:49:07.536Z,13.25
2019-05-19T06:49:40.537Z,13.25
2019-05-19T06:50:14.017Z,13.25
2019-05-19T06:50:47.067Z,13.25
2019-05-19T06:51:20.065Z,13.25
2019-05-19T06:51:53.096Z,13.25
2019-05-19T06:52:27.652Z,13.25
2019-05-19T06:53:13.540Z,13.25
2019-05-19T06:53:35.973Z,13.25
2019-05-19T06:54:09.104Z,13.25
2019-05-19T06:54:42.276Z,13.25
2019-05-19T06:55:16.507Z,13.25
2019-05-19T06:55:49.500Z,13.25
2019-05-19T06:56:22.471Z,13.25
2019-05-19T06:56:55.550Z,13.25
2019-05-19T06:57:28.571Z,13.25
2019-05-19T06:58:02.672Z,13.25
2019-05-19T06:58:35.851Z,13.25
2019-05-19T06:59:10.346Z,13.25
2019-05-19T06:59:43.388Z,13.25
2019-05-19T07:00:16.355Z,13.25
2019-05-19T07:00:49.882Z,13.25
2019-05-19T07:01:22.782Z,13.19
2019-05-19T07:01:55.822Z,13.25
2019-05-19T07:02:28.975Z,13.25
2019-05-19T07:03:02.152Z,13.25
2019-05-19T07:03:35.114Z,13.25
2019-05-19T07:04:08.284Z,13.25
2019-05-19T07:04:41.411Z,13.25
2019-05-19T07:05:14.641Z,13.25
2019-05-19T07:05:47.537Z,13.25
2019-05-19T07:06:20.561Z,13.25
2019-05-19T07:06:53.605Z,13.25
2019-05-19T07:07:26.615Z,13.31
2019-05-19T07:07:59.731Z,13.31
2019-05-19T07:08:32.827Z,13.31
2019-05-19T07:09:06.611Z,13.31
2019-05-19T07:09:39.958Z,13.31
2019-05-19T07:10:12.985Z,13.31